Brookhaven Family 5K Run for Duchenne Muscular Dystrophy 2017

# of participants: 355# of finishers: 287last updated: 11/8/2017 10:41 am
Result Questions?
Award Finish Video Bib First Name Last Name Elapsed Time Pace Category Cat Rank Gender Gen Rank Age Age Group AG Rank Team Name City ST
358 AMBER ASHLEY 32:38.94 10:31/mile 5K Run/Walk 157 F 65 58 55-59 3 CHARLOTTE NC
97 KEITH CLARK 33:04.14 10:40/mile 5K Run/Walk 158 M 93 45 45-49 8 MATTHEWS NC
62 DOROTHY AMADEE 33:09.72 10:41/mile 5K Run/Walk 159 F 66 54 50-54 4 MONROE NC
95 CAROLINE CLARK 33:11.57 10:42/mile 5K Run/Walk 160 F 67 8 1-14 28 MATTHEWS
219 SUSAN PASKO 33:15.72 10:43/mile 5K Run/Walk 161 F 68 45 45-49 8 Positively Pasko WAXAHAW NC
118 ALICIA EDWARDS 33:17.81 10:44/mile 5K Run/Walk 162 F 69 12 1-14 29 Charlotte Latin Running Club CHARLOTTE NC
119 DOUGLAS EDWARDS 33:25.32 10:46/mile 5K Run/Walk 163 M 94 60 60-64 3 Charlotte Latin Running Club CHARLOTTE NC
121 TRICEY EDWARDS 33:25.37 10:46/mile 5K Run/Walk 164 F 70 52 50-54 5 Charlotte Latin Running Club CHARLOTTE NC
323 MICHELLE YON 33:25.41 10:46/mile 5K Run/Walk 165 F 71 38 35-39 7 MATTHEWS NC
270 PAUL TATSIS 33:29.14 10:48/mile 5K Run/Walk 166 M 95 40 40-44 12 CHARLOTTE NC
294 MARY WHOLEY 33:35.72 10:50/mile 5K Run/Walk 167 F 72 56 55-59 4 CHARLOTTE NC
159 AIDAN LANE 33:46.82 10:53/mile 5K Run/Walk 168 M 96 12 1-14 42
67 KADEY BALLARD 34:05.44 10:59/mile 5K Run/Walk 169 F 73 28 25-29 4 Kd&Kim CHARLOTTE NC
316 ASHLYN LABUE 34:36.92 11:09/mile 5K Run/Walk 170 F 74 7 1-14 30 Cardio Cats MATTHEWS NC
128 ERIC GARVEY 34:37.55 11:10/mile 5K Run/Walk 171 M 97 44 40-44 13 Cardio Cats
386 KENT HUTCHENS 34:44.30 11:12/mile 5K Run/Walk 172 M 98 48 45-49 9 Run Like a Mother WAXHAW NC
385 ELIZABETH HUTCHENS 34:44.31 11:12/mile 5K Run/Walk 173 F 75 45 45-49 9 Run Like a Mother WAXHAW NC
217 MADISON PASKO 34:44.43 11:12/mile 5K Run/Walk 174 F 76 15 15-19 4 Positively Pasko WAXAHAW NC
75 AVERY BLY 34:52.53 11:15/mile 5K Run/Walk 175 F 77 9 1-14 31 MATTHEWS NC
76 DARCI BLY 34:53.66 11:15/mile 5K Run/Walk 176 F 78 38 35-39 8 MATTHEWS NC
73 AINSLEY BLY 34:53.91 11:15/mile 5K Run/Walk 177 F 79 7 1-14 32 MATTHEWS NC
89 SHANLEY CAMPBELL 35:10.11 11:20/mile 5K Run/Walk 178 F 80 24 20-24 2 Campbell MINT HILL NC
377 LINDSEY KWIATKOWSKI 35:20.96 11:24/mile 5K Run/Walk 179 F 81 23 20-24 3 Cardio Cats CHARLOTTE NC
369 SWATI ADAWADKAR 35:31.81 11:27/mile 5K Run/Walk 180 F 82 36 35-39 9 Devan's Dream Team CHARLOTTE NC
343 TONY POWERS 35:42.06 11:30/mile 5K Run/Walk 181 M 99 57 55-59 4 MONROE NC
315 MELISSA LABUE 35:45.44 11:32/mile 5K Run/Walk 182 F 83 34 30-34 4 Cardio Cats MATTHEWS NC
376 CAITLIN ROBERTS 35:52.10 11:34/mile 5K Run/Walk 183 F 84 25 25-29 5 Cardio Cats CHARLOTTE NC
245 ALEXANDRA SCHMIDT 35:52.23 11:34/mile 5K Run/Walk 184 F 85 27 25-29 6 Cardio Cats CHARLOTTE NC
208 MAE NELSON 36:02.56 11:37/mile 5K Run/Walk 185 F 86 59 55-59 5 PINEVILLE NC
248 ERIC SCHULTZ 36:11.43 11:40/mile 5K Run/Walk 186 M 100 42 40-44 14 Team Schultz MATTHEWS NC
104 MICHAEL DEFRANCES 36:12.07 11:40/mile 5K Run/Walk 187 M 101 33 30-34 5 MATTHEWS NC
406 KIMBERLY SHOEMAKER 36:16.03 11:41/mile 5K Run/Walk 188 F 87 49 45-49 10 Charlotte Latin Running Club CHARLOTTE NC
90 MIRELLA CASANOVA 36:24.08 11:44/mile 5K Run/Walk 189 F 88 47 45-49 11 CHARLOTTE NC
288 NICK VRETTOS 36:34.84 11:48/mile 5K Run/Walk 190 M 102 46 45-49 10 MATTHEWS NC
345 RPBERT SKPOWSKI 36:35.53 11:48/mile 5K Run/Walk 191 M 103 11 1-14 43 MATTHEWS NC
183 SAMI MACDONALD 36:48.11 11:52/mile 5K Run/Walk 192 F 89 26 25-29 7 Cardio Cats CHARLOTTE NC
123 ABBEY FESLER 36:48.71 11:52/mile 5K Run/Walk 193 F 90 22 20-24 4 Cardio Cats CHARLOTTE NC
344 VALERY SKPOWSKI 36:56.73 11:55/mile 5K Run/Walk 194 F 91 46 45-49 12 MATTHEWS NC
250 KALIA SCHULTZ 36:58.19 11:55/mile 5K Run/Walk 195 F 92 11 1-14 33 Team Schultz MATTHEWS NC
249 JEN SCHULTZ 36:58.59 11:55/mile 5K Run/Walk 196 F 93 42 40-44 9 Team Schultz MATTHEWS NC
187 JOE MAREK 37:06.24 11:58/mile 5K Run/Walk 197 F 94 45 45-49 13 Madhouse Mareks MATTHEWS NC
188 JULIA MAREK 37:24.86 12:04/mile 5K Run/Walk 198 F 95 11 1-14 34 Madhouse Mareks MATTHEWS NC
299 KENIA WOODS 37:42.46 12:09/mile 5K Run/Walk 199 F 96 40 40-44 10 Team Woods MATTHEWS NC
261 JULIE SOMMERS 37:55.86 12:14/mile 5K Run/Walk 200 F 97 43 40-44 11 The Sommers MATTHEWS NC
349 MATTHEW POWERS 37:59.49 12:15/mile 5K Run/Walk 201 M 104 12 1-14 44 MATTHEWS NC
291 CHARLES WETZEL 38:01.32 12:15/mile 5K Run/Walk 202 M 105 49 45-49 11 CHARLOTTE NC
293 MADISON WETZEL 38:01.46 12:15/mile 5K Run/Walk 203 F 98 14 1-14 35 CHARLOTTE NC
348 TOM POWERS 38:05.33 12:17/mile 5K Run/Walk 204 M 106 49 45-49 12
166 SYDNEY LAWRENCE 38:25.50 12:23/mile 5K Run/Walk 205 F 99 12 1-14 36 Charlotte Latin Running Club CHARLOTTE NC
292 KAITLIN WETZEL 38:27.10 12:24/mile 5K Run/Walk 206 F 100 13 1-14 37 CHARLOTTE NC
255 MOLLY SHAH 38:27.21 12:24/mile 5K Run/Walk 207 F 101 38 35-39 10 Devan's Dream Team CHARLOTTE NC
194 MEREDITH MCKEE 38:27.34 12:24/mile 5K Run/Walk 208 F 102 40 40-44 12 Devan's Dream Team CHARLOTTE NC
206 SKYLAR NEAL 38:30.85 12:25/mile 5K Run/Walk 209 F 103 13 1-14 38 FOTF MATTHEWS NC
167 TOM LAWRENCE 38:37.21 12:27/mile 5K Run/Walk 210 M 107 43 40-44 15 Charlotte Latin Running Club CHARLOTTE NC
370 RAJUL PAREKH 38:51.53 12:32/mile 5K Run/Walk 211 F 104 40 40-44 13 Devan's Dream Team CHARLOTTE NC
197 MATT MOES 38:56.38 12:33/mile 5K Run/Walk 212 M 108 29 25-29 2 Cardio Cats CHARLOTTE NC
184 SANDERS MACDONALD 38:56.74 12:33/mile 5K Run/Walk 213 M 109 28 25-29 3 Cardio Cats CHARLOTTE NC
127 BRYCE GARVEY 38:56.89 12:33/mile 5K Run/Walk 214 M 110 27 25-29 4 Cardio Cats CHARLOTTE NC
337 DAVID JULIAN 39:17.78 12:40/mile 5K Run/Walk 215 M 111 57 55-59 5 MAYTHY NC
140 KAYDIN HENDRICK 39:52.32 12:51/mile 5K Run/Walk 216 M 112 10 1-14 45 Parkside Elementary
64 JEAN ASINGER 40:09.46 12:57/mile 5K Run/Walk 217 F 105 54 50-54 6 Charlotte Latin Running Club CHARLOTTE NC
355 SOPHIA CARTAFALSA 40:09.62 12:57/mile 5K Run/Walk 218 F 106 11 1-14 39 Charlotte Latin Running Club WEDDINGTON NC
286 DEMETRA VRETTOS 40:32.92 13:04/mile 5K Run/Walk 219 F 107 44 40-44 14 Team Vrettos MATTHEWS NC
378 SATISH ADAWADKAR 40:41.92 13:07/mile 5K Run/Walk 220 M 113 38 35-39 9 Devan's Dream Team CHARLOTTE NC
105 SARAH DEFRANCES 41:21.16 13:20/mile 5K Run/Walk 221 F 108 33 30-34 5 WEDDINGTON NC
79 JASEN BRISSEAUX 42:01.46 13:33/mile 5K Run/Walk 222 M 114 8 1-14 46 Parkside Elementary
247 EMILY SCHULTZ 42:40.62 13:46/mile 5K Run/Walk 223 F 109 9 1-14 40 Team Schultz MATTHEWS NC
153 TARAN KIMBROUGH 43:08.59 13:55/mile 5K Run/Walk 224 M 115 9 1-14 47 Parkside Elementary
180 MICAH LOVETT 43:11.25 13:55/mile 5K Run/Walk 225 M 116 9 1-14 48 Parkside Elementary
100 CYLE COLE 43:17.55 13:57/mile 5K Run/Walk 226 M 117 31 30-34 6
164 SHAWNA LAUER 43:28.32 14:01/mile 5K Run/Walk 227 F 110 39 35-39 11 Team Lauer MATTHEWS NC
163 ANDERSON LAUER 43:28.42 14:01/mile 5K Run/Walk 228 M 118 7 1-14 49 Team Lauer MATTHEWS NC
391 CADENCE STANLEY 44:02.66 14:12/mile 5K Run/Walk 229 F 111 39 35-39 12 MATTHEWS NC
165 TODD LAUER 44:05.05 14:13/mile 5K Run/Walk 230 M 119 40 40-44 16 Team Lauer MATTHEWS NC
335 KIERAN FEENEY 44:37.13 14:23/mile 5K Run/Walk 231 F 112 11 1-14 41 MATTHEWS NC
321 JULIE WARDLEY 44:44.72 14:26/mile 5K Run/Walk 232 F 113 37 35-39 13 MATTHEWS NC
322 DOUGLAS WARDLEY 44:46.36 14:26/mile 5K Run/Walk 233 M 120 39 35-39 10 MATTHEWS NC
152 KATHY KEY 44:49.01 14:27/mile 5K Run/Walk 234 F 114 54 50-54 7 CLOVER SC
305 FERN MAYS 44:55.78 14:29/mile 5K Run/Walk 235 F 115 70 65-98 2 STALLINGS NC
336 BRENDAN FEENEY 45:03.60 14:32/mile 5K Run/Walk 236 M 121 38 35-39 11 MATTHEWS NC
150 JESSICA KERSHNER 45:14.88 14:35/mile 5K Run/Walk 237 F 116 38 35-39 14 MATTHEWS NC
375 BRAD ELLIS 47:15.42 15:14/mile 5K Run/Walk 238 M 122 1 1-14 50 Devan's Dream Team CHARLOTTE NC
371 DILLON PAREKH 47:15.70 15:14/mile 5K Run/Walk 239 M 123 8 1-14 51
258 CONSTANCE SHOTTS 48:59.69 15:48/mile 5K Run/Walk 240 F 117 75 65-98 3 Get In Gear MONROE NC
192 CINDY MAULTSBY 49:19.01 15:54/mile 5K Run/Walk 241 F 118 46 45-49 14 Drew's Ninja Warriors CORNELIUS NC
284 MELISSA VANDEWIEL 49:42.22 16:02/mile 5K Run/Walk 242 F 119 43 40-44 15 JOHNS ISLAND SC
287 ELENA VRETTOS 1:02:08.70 1:02:08/mile 1 Mile Run 45 F 25 12 Team Vrettos
52 BILL ABRAMS 5K Run/Walk M 13 1-14 Thistledowners MATTHEWS NC
53 MICHAEL ABRAMS 5K Run/Walk M 56 55-59 Thistledowners MATTHEWS NC
54 MOLLY ABRAMS 5K Run/Walk F 51 50-54 Thistledowners MATTHEWS NC
55 BRITTANY ACKERMAN 5K Run/Walk F 28 25-29 Gunnsfitness WINGATE NC
56 COREY ACKERMAN 5K Run/Walk M 45 45-49 Gunnsfitness WINGATE NC
57 THOMAS ACKERMAN 5K Run/Walk M 2 1-14 Gunnsfitness WINGATE NC
58 SWATI ADAWADKAR 5K Run/Walk F 36 35-39 Devan's Dream Team CHARLOTTE NC
60 HANNAH ALPERN 1 Mile Run F 12
61 JUAN ALZATE 5K Run/Walk M 65 65-98 MONROE NC
63 AMBER ASHLEY 5K Run/Walk F 58 55-59 CHARLOTTE NC
66 GABRIEL AUTRY 5K Run/Walk M 8 1-14 Parkside Elementary
69 LIAM BATT 1 Mile Run M 8
71 ZOE BERWICK 1 Mile Run F 11